Time;durP1;ratioP1;P1;durP2;ratioP2;P2;SDS_P1;SDS_P2;PMS_P1;PMS_P2;Temp;Humidity;BMP_temperature;BMP_pressure;BME280_temperature;BME280_humidity;BME280_pressure;Samples;Min_cycle;Max_cycle;Signal;HPM_P1;HPM_P2
2022/12/20 00:01:19;;;;;;;5.07;2.70;;;10.70;99.90;;;;;;5097281;28;36098;-77
2022/12/20 00:03:45;;;;;;;7.10;3.20;;;10.70;99.90;;;;;;5104521;28;39078;-76
2022/12/20 00:06:13;;;;;;;5.90;3.10;;;10.70;99.90;;;;;;5102304;27;38552;-76
2022/12/20 00:08:39;;;;;;;3.43;2.70;;;10.70;99.90;;;;;;5096457;27;36991;-76
2022/12/20 00:11:07;;;;;;;6.23;3.10;;;10.70;99.90;;;;;;5093873;27;38188;-76
2022/12/20 00:13:33;;;;;;;5.13;3.10;;;10.70;99.90;;;;;;5101707;27;39836;-76
2022/12/20 00:16:16;;;;;;;8.53;3.17;;;10.70;99.90;;;;;;5102486;28;39393;-76
2022/12/20 00:18:43;;;;;;;4.67;3.13;;;10.70;99.90;;;;;;5093833;28;48756;-77
2022/12/20 00:21:12;;;;;;;5.30;3.07;;;10.80;99.90;;;;;;5081208;27;36601;-78
2022/12/20 00:23:39;;;;;;;6.13;2.93;;;10.80;99.90;;;;;;5086856;28;37383;-76
2022/12/20 00:26:11;;;;;;;5.33;2.97;;;10.80;99.90;;;;;;5097525;27;37253;-77
2022/12/20 00:28:38;;;;;;;5.00;3.37;;;10.80;99.90;;;;;;5087479;28;47083;-77
2022/12/20 00:31:05;;;;;;;5.47;3.30;;;10.70;99.90;;;;;;5086315;28;36174;-77
2022/12/20 00:33:33;;;;;;;8.50;3.77;;;10.50;99.90;;;;;;5088864;28;38941;-76
2022/12/20 00:35:59;;;;;;;6.33;3.50;;;10.40;99.90;;;;;;5107537;27;38508;-76
2022/12/20 00:38:25;;;;;;;6.33;3.50;;;10.40;99.90;;;;;;5106530;28;38433;-75
2022/12/20 00:41:19;;;;;;;7.70;3.77;;;10.30;99.90;;;;;;5108440;28;38046;-76
2022/12/20 00:43:47;;;;;;;8.90;3.83;;;10.30;99.90;;;;;;5089060;28;47027;-76
2022/12/20 00:46:15;;;;;;;8.10;4.53;;;10.30;99.90;;;;;;5086851;27;38095;-76
2022/12/20 00:48:41;;;;;;;10.57;4.03;;;10.30;99.90;;;;;;5092161;28;36901;-75
2022/12/20 00:51:13;;;;;;;6.60;4.70;;;10.30;99.90;;;;;;5083960;28;35994;-76
2022/12/20 00:53:40;;;;;;;6.78;3.70;;;10.40;99.90;;;;;;5104276;27;39632;-76
2022/12/20 00:56:08;;;;;;;5.50;3.80;;;10.40;99.90;;;;;;5089321;27;38796;-75
2022/12/20 00:58:36;;;;;;;7.50;3.80;;;10.40;99.90;;;;;;5108537;28;38653;-77
2022/12/20 01:01:04;;;;;;;5.50;3.83;;;10.50;99.90;;;;;;5106309;28;37685;-75
2022/12/20 01:03:30;;;;;;;8.37;4.70;;;10.50;99.90;;;;;;5085826;28;46860;-75
2022/12/20 01:06:01;;;;;;;7.73;3.73;;;10.60;99.90;;;;;;5103955;28;38290;-76
2022/12/20 01:08:30;;;;;;;8.13;4.30;;;10.60;99.90;;;;;;5107625;27;37846;-75
2022/12/20 01:11:00;;;;;;;6.10;3.50;;;10.70;99.90;;;;;;5108337;27;37170;-75
2022/12/20 01:13:27;;;;;;;7.43;3.40;;;10.70;99.90;;;;;;5107497;27;40030;-75
2022/12/20 01:15:53;;;;;;;7.57;3.23;;;10.70;99.90;;;;;;5090632;28;37501;-75
2022/12/20 01:18:19;;;;;;;6.47;4.13;;;10.70;99.90;;;;;;5089623;27;36906;-75
2022/12/20 01:20:45;;;;;;;7.67;3.57;;;10.80;99.90;;;;;;5107184;28;39161;-75
2022/12/20 01:23:12;;;;;;;6.77;3.70;;;10.80;99.90;;;;;;5088092;28;36554;-75
2022/12/20 01:25:38;;;;;;;7.70;3.47;;;10.80;99.90;;;;;;5106228;28;39324;-76
2022/12/20 01:28:04;;;;;;;6.30;4.07;;;10.80;99.90;;;;;;5083108;27;37433;-76
2022/12/20 01:30:30;;;;;;;6.50;3.83;;;10.70;99.90;;;;;;5108663;27;38480;-76
2022/12/20 01:32:56;;;;;;;7.13;3.80;;;10.70;99.90;;;;;;5084293;28;38692;-75
2022/12/20 01:35:22;;;;;;;9.53;4.60;;;10.70;99.90;;;;;;5095503;27;38789;-74
2022/12/20 01:37:48;;;;;;;11.87;4.73;;;10.70;99.90;;;;;;5083300;27;37074;-76
2022/12/20 01:40:15;;;;;;;10.50;4.10;;;10.70;99.90;;;;;;5084575;28;37627;-76
2022/12/20 01:42:41;;;;;;;6.63;4.57;;;10.70;99.90;;;;;;5106094;28;39940;-76
2022/12/20 01:45:12;;;;;;;6.63;4.90;;;10.70;99.90;;;;;;5104369;28;38665;-75
2022/12/20 01:47:38;;;;;;;7.50;4.87;;;10.70;99.90;;;;;;5099815;27;39097;-75
2022/12/20 01:50:08;;;;;;;8.90;5.03;;;10.80;99.90;;;;;;5089556;27;36091;-76
2022/12/20 01:52:42;;;;;;;7.57;5.23;;;10.70;99.90;;;;;;5098890;27;39676;-76
2022/12/20 01:55:15;;;;;;;7.97;5.20;;;10.70;99.90;;;;;;5086413;28;38604;-76
2022/12/20 01:58:11;;;;;;;8.87;5.37;;;10.70;99.90;;;;;;5097607;27;38264;-75
2022/12/20 02:03:19;;;;;;;13.90;4.93;;;10.70;99.90;;;;;;5634284;22;19916;-80
2022/12/20 02:05:47;;;;;;;9.20;5.32;;;10.60;99.90;;;;;;5111156;28;38242;-78
2022/12/20 02:08:18;;;;;;;5.70;4.30;;;10.70;99.90;;;;;;5122454;27;38531;-80
2022/12/20 02:11:25;;;;;;;6.50;4.23;;;10.60;99.90;;;;;;5114790;28;36978;-80
2022/12/20 02:14:09;;;;;;;9.77;4.90;;;10.70;99.90;;;;;;5016365;28;48377;-78
2022/12/20 02:16:59;;;;;;;9.50;4.87;;;10.70;99.90;;;;;;5062274;28;49391;-79
2022/12/20 02:20:03;;;;;;;8.60;5.57;;;10.60;99.90;;;;;;5107099;28;38462;-78
2022/12/20 02:22:55;;;;;;;11.27;5.73;;;10.60;99.90;;;;;;5103604;27;49379;-79
2022/12/20 02:25:43;;;;;;;7.00;4.63;;;10.50;99.90;;;;;;5111770;27;38416;-78
2022/12/20 02:28:46;;;;;;;8.57;4.83;;;10.60;99.90;;;;;;5126129;27;38654;-80
2022/12/20 02:31:17;;;;;;;9.87;4.93;;;10.60;99.90;;;;;;5121359;27;37751;-79
2022/12/20 02:33:47;;;;;;;6.43;4.15;;;10.60;99.90;;;;;;5127382;28;37390;-79
2022/12/20 02:36:18;;;;;;;7.97;4.40;;;10.60;99.90;;;;;;5103857;28;37462;-79
2022/12/20 02:38:51;;;;;;;6.40;4.70;;;10.60;99.90;;;;;;5105186;28;38615;-78
2022/12/20 02:41:24;;;;;;;6.43;4.32;;;10.70;99.90;;;;;;5122766;27;39492;-80
2022/12/20 02:46:49;;;;;;;9.83;4.83;;;10.80;99.90;;;;;;5094353;27;50025;-80
2022/12/20 02:49:28;;;;;;;7.47;4.60;;;10.80;99.90;;;;;;5100698;28;36980;-78
2022/12/20 02:51:56;;;;;;;6.53;4.10;;;10.90;99.90;;;;;;5104972;28;37018;-80
2022/12/20 02:54:32;;;;;;;6.87;4.50;;;10.90;99.90;;;;;;5098521;27;36408;-80
2022/12/20 02:57:23;;;;;;;6.77;3.97;;;11.00;99.90;;;;;;5098503;27;39041;-79
2022/12/20 02:59:57;;;;;;;6.37;3.67;;;11.10;99.90;;;;;;5093177;28;49220;-78
2022/12/20 03:03:21;;;;;;;10.50;3.27;;;11.20;99.90;;;;;;5102861;28;37604;-80
2022/12/20 03:05:21;;;;;;;6.97;3.70;;;11.20;99.90;;;;;;5123301;27;38116;-79
2022/12/20 03:07:48;;;;;;;6.53;3.80;;;11.20;99.90;;;;;;5117159;28;38349;-80
2022/12/20 03:10:18;;;;;;;5.73;3.63;;;11.30;99.90;;;;;;5079346;28;37777;-80
2022/12/20 03:12:49;;;;;;;7.10;3.80;;;11.20;99.90;;;;;;5100844;28;38724;-80
2022/12/20 03:15:18;;;;;;;5.80;3.67;;;11.10;99.90;;;;;;5109790;27;36544;-79
2022/12/20 03:17:45;;;;;;;5.20;2.70;;;11.20;99.90;;;;;;5106122;28;38053;-79
2022/12/20 03:20:14;;;;;;;7.70;3.60;;;11.20;99.90;;;;;;5109129;28;37904;-78
2022/12/20 03:22:55;;;;;;;5.40;2.97;;;11.30;99.90;;;;;;5105289;28;37158;-79
2022/12/20 03:25:39;;;;;;;6.57;3.17;;;11.30;99.90;;;;;;5096877;28;35809;-80
2022/12/20 03:28:07;;;;;;;6.83;4.20;;;11.30;99.90;;;;;;5115588;27;38809;-78
2022/12/20 03:30:33;;;;;;;6.30;3.03;;;11.30;99.90;;;;;;5101677;28;35411;-79
2022/12/20 03:33:02;;;;;;;4.47;3.10;;;11.30;99.90;;;;;;5112561;28;37514;-79
2022/12/20 03:35:32;;;;;;;5.10;3.23;;;11.30;99.90;;;;;;5116840;28;48308;-78
2022/12/20 03:38:08;;;;;;;9.97;3.33;;;11.30;99.90;;;;;;5125041;27;39066;-80
2022/12/20 03:40:37;;;;;;;4.47;2.83;;;11.30;99.90;;;;;;5110418;28;48832;-79
2022/12/20 03:43:06;;;;;;;5.87;3.20;;;11.30;99.90;;;;;;5130706;27;38330;-80
2022/12/20 03:45:34;;;;;;;6.90;3.30;;;11.30;99.90;;;;;;5110870;28;37635;-79
2022/12/20 03:48:00;;;;;;;5.23;2.83;;;11.30;99.90;;;;;;5124824;27;39177;-80
2022/12/20 03:50:27;;;;;;;4.07;3.10;;;11.30;99.90;;;;;;5111374;27;37322;-78
2022/12/20 03:52:53;;;;;;;6.53;3.50;;;11.30;99.90;;;;;;5112224;28;39603;-79
2022/12/20 03:55:19;;;;;;;4.03;3.20;;;11.30;99.90;;;;;;5094726;28;35938;-79
2022/12/20 03:57:48;;;;;;;6.47;3.40;;;11.30;99.90;;;;;;5107122;28;37612;-78
2022/12/20 04:00:15;;;;;;;6.50;3.47;;;11.20;99.90;;;;;;5092765;28;36010;-80
2022/12/20 04:02:43;;;;;;;6.13;3.67;;;11.10;99.90;;;;;;5071847;27;37927;-81
2022/12/20 04:05:10;;;;;;;7.43;3.80;;;11.00;99.90;;;;;;5132453;27;34181;-79
2022/12/20 04:07:48;;;;;;;11.23;4.17;;;10.90;99.90;;;;;;5129413;27;38480;-78
2022/12/20 04:10:17;;;;;;;7.27;3.93;;;10.90;99.90;;;;;;5092322;28;39093;-80
2022/12/20 04:12:43;;;;;;;8.93;4.53;;;10.90;99.90;;;;;;5110225;27;38216;-78
2022/12/20 04:15:10;;;;;;;10.23;4.27;;;10.80;99.90;;;;;;5097512;27;37149;-78
2022/12/20 04:17:39;;;;;;;7.37;4.33;;;10.80;99.90;;;;;;5127514;27;40298;-78
2022/12/20 04:20:19;;;;;;;8.77;4.93;;;10.80;99.90;;;;;;5076377;28;38336;-79
2022/12/20 04:22:50;;;;;;;6.33;4.43;;;10.70;99.90;;;;;;5085488;28;37505;-78
2022/12/20 04:25:22;;;;;;;7.53;4.87;;;10.70;99.90;;;;;;5070223;28;36328;-78
2022/12/20 04:27:50;;;;;;;7.75;4.72;;;10.70;99.90;;;;;;5071901;28;38364;-78
2022/12/20 04:30:19;;;;;;;8.63;4.50;;;10.70;99.90;;;;;;5087165;28;39887;-79
2022/12/20 04:32:46;;;;;;;9.13;4.33;;;10.70;99.90;;;;;;5074466;28;37356;-78
2022/12/20 04:35:13;;;;;;;11.40;4.73;;;10.70;99.90;;;;;;5080518;28;37536;-79
2022/12/20 04:37:39;;;;;;;9.60;4.33;;;10.70;99.90;;;;;;5064860;28;38956;-78
2022/12/20 04:40:06;;;;;;;7.47;4.17;;;10.70;99.90;;;;;;5056543;28;38841;-78
2022/12/20 04:42:34;;;;;;;8.50;4.33;;;10.80;99.90;;;;;;5075629;28;37133;-79
2022/12/20 04:45:03;;;;;;;6.67;4.63;;;10.80;99.90;;;;;;5075791;28;38939;-79
2022/12/20 04:47:50;;;;;;;8.50;4.10;;;10.90;99.90;;;;;;5093434;28;40230;-79
2022/12/20 04:50:17;;;;;;;5.53;4.23;;;10.90;99.90;;;;;;5093637;28;39206;-79
2022/12/20 04:55:52;;;;;;;6.17;3.77;;;10.90;99.90;;;;;;5064405;28;50595;-80
2022/12/20 04:58:19;;;;;;;8.47;4.50;;;11.00;99.90;;;;;;5069838;28;38521;-80
2022/12/20 05:00:48;;;;;;;7.83;4.07;;;11.00;99.90;;;;;;5077374;28;37515;-79
2022/12/20 05:03:14;;;;;;;7.47;3.73;;;11.00;99.90;;;;;;5061051;28;38538;-78
2022/12/20 05:06:01;;;;;;;7.87;3.60;;;11.00;99.90;;;;;;5074101;28;38669;-80
2022/12/20 05:08:28;;;;;;;8.57;4.27;;;11.00;99.90;;;;;;5070146;28;39859;-79
2022/12/20 05:10:54;;;;;;;4.57;3.47;;;11.10;99.90;;;;;;5038342;28;39025;-79
2022/12/20 05:13:20;;;;;;;10.73;3.87;;;11.10;99.90;;;;;;5043027;28;36676;-78
2022/12/20 05:16:03;;;;;;;5.33;4.13;;;11.10;99.90;;;;;;5057574;28;36115;-79
2022/12/20 05:18:42;;;;;;;7.63;3.13;;;11.20;99.90;;;;;;5098850;28;39244;-78
2022/12/20 05:26:53;;;;;;;4.60;3.10;;;11.30;99.90;;;;;;5113457;28;49719;-79
2022/12/20 05:29:20;;;;;;;6.83;3.73;;;11.40;99.90;;;;;;5070233;28;37588;-78
2022/12/20 05:31:50;;;;;;;8.20;3.77;;;11.50;99.90;;;;;;5076964;28;38197;-80
2022/12/20 05:34:21;;;;;;;6.70;4.23;;;11.50;99.90;;;;;;5104744;28;39465;-80
2022/12/20 05:36:55;;;;;;;6.50;4.07;;;11.60;99.90;;;;;;5102710;28;37143;-80
2022/12/20 05:39:22;;;;;;;11.03;3.63;;;11.70;99.90;;;;;;5089046;28;39613;-79
2022/12/20 05:41:53;;;;;;;7.30;3.90;;;11.70;99.90;;;;;;5090397;28;38448;-80
2022/12/20 05:44:26;;;;;;;5.47;3.63;;;11.80;99.90;;;;;;5080137;28;39631;-80
2022/12/20 05:47:06;;;;;;;8.63;4.13;;;11.80;99.90;;;;;;5115784;28;37759;-80
2022/12/20 05:49:32;;;;;;;7.33;4.07;;;11.80;99.90;;;;;;5092376;28;47198;-80
2022/12/20 05:52:14;;;;;;;6.73;4.13;;;11.90;99.90;;;;;;5083188;28;37481;-79
2022/12/20 05:55:06;;;;;;;7.85;3.53;;;11.80;99.90;;;;;;5072124;28;46997;-79
2022/12/20 05:57:32;;;;;;;5.33;3.47;;;11.80;99.90;;;;;;5061483;28;48406;-79
2022/12/20 05:59:59;;;;;;;9.80;3.87;;;11.80;99.90;;;;;;5100825;28;38105;-79
2022/12/20 06:02:25;;;;;;;8.55;3.65;;;11.90;99.90;;;;;;5101489;28;39530;-80
2022/12/20 06:04:51;;;;;;;4.43;3.10;;;11.90;99.90;;;;;;5084646;28;38188;-80
2022/12/20 06:07:19;;;;;;;5.57;3.13;;;11.80;99.90;;;;;;5107308;28;37392;-81
2022/12/20 06:09:48;;;;;;;7.50;3.47;;;11.80;99.90;;;;;;5358113;22;37271;-79
2022/12/20 06:12:14;;;;;;;6.10;3.58;;;11.80;99.90;;;;;;5051043;28;37341;-81
2022/12/20 06:14:42;;;;;;;5.93;3.00;;;11.70;99.90;;;;;;5093694;28;36804;-80
2022/12/20 06:17:21;;;;;;;5.47;3.20;;;11.70;99.90;;;;;;5089662;28;37038;-82
2022/12/20 06:19:48;;;;;;;4.47;2.70;;;11.80;99.90;;;;;;5075274;28;40347;-78
2022/12/20 06:22:14;;;;;;;8.93;3.60;;;11.90;99.90;;;;;;5090154;28;40724;-80
2022/12/20 06:24:42;;;;;;;7.03;3.07;;;11.90;99.90;;;;;;5105519;28;40713;-78
2022/12/20 06:35:08;;;;;;;6.63;2.90;;;11.90;99.90;;;;;;4850714;22;20091;-79
2022/12/20 06:37:35;;;;;;;5.47;2.60;;;11.90;99.90;;;;;;5090697;27;36724;-80
2022/12/20 06:40:06;;;;;;;7.77;2.80;;;12.00;99.90;;;;;;5101817;27;38016;-80
2022/12/20 06:42:32;;;;;;;6.57;3.00;;;11.90;99.90;;;;;;5104027;27;47274;-79
2022/12/20 06:44:58;;;;;;;6.27;3.03;;;12.00;99.90;;;;;;5115125;27;41165;-80
2022/12/20 06:47:24;;;;;;;4.77;2.93;;;12.00;99.90;;;;;;5119940;27;38393;-80
2022/12/20 06:50:06;;;;;;;4.90;2.67;;;12.00;99.90;;;;;;5118961;27;38746;-80
2022/12/20 06:52:32;;;;;;;7.37;2.50;;;12.00;99.90;;;;;;5105135;28;47882;-80
2022/12/20 06:55:04;;;;;;;4.93;2.40;;;12.00;99.90;;;;;;5109072;27;36811;-80
2022/12/20 06:57:31;;;;;;;4.37;2.60;;;11.90;99.90;;;;;;5111213;27;50288;-80
2022/12/20 06:59:59;;;;;;;3.27;2.07;;;12.00;99.90;;;;;;5114856;28;38049;-80
2022/12/20 07:02:30;;;;;;;7.33;3.17;;;12.00;99.90;;;;;;5107791;28;38541;-80
2022/12/20 07:07:46;;;;;;;5.00;2.50;;;11.90;99.90;;;;;;5471240;22;20048;-79
2022/12/20 07:15:24;;;;;;;3.80;2.47;;;11.70;99.90;;;;;;5773899;22;20052;-77
2022/12/20 07:17:50;;;;;;;5.03;2.60;;;11.80;99.90;;;;;;5116102;27;37740;-81
2022/12/20 07:20:51;;;;;;;6.43;2.90;;;11.80;99.90;;;;;;5120238;27;38638;-81
2022/12/20 07:23:54;;;;;;;4.20;2.40;;;11.80;99.90;;;;;;5075885;28;36558;-81
2022/12/20 07:26:40;;;;;;;5.97;2.45;;;11.80;99.90;;;;;;5112225;28;37298;-81
2022/12/20 07:29:39;;;;;;;7.30;3.00;;;11.80;99.90;;;;;;5094858;28;37811;-81
2022/12/20 07:32:25;;;;;;;5.80;2.53;;;11.70;99.90;;;;;;5103397;27;41339;-81
2022/12/20 07:34:58;;;;;;;4.57;2.50;;;11.70;99.90;;;;;;5082434;28;38507;-79
2022/12/20 07:42:43;;;;;;;5.87;2.77;;;11.40;99.90;;;;;;5602633;22;20033;-81
2022/12/20 07:45:11;;;;;;;5.40;2.60;;;11.40;99.90;;;;;;5102344;28;39283;-81
2022/12/20 07:47:56;;;;;;;6.10;2.20;;;11.30;99.90;;;;;;5079287;28;39578;-81
2022/12/20 07:50:51;;;;;;;7.37;2.73;;;11.20;99.90;;;;;;5099304;28;38509;-81
2022/12/20 07:58:43;;;;;;;7.00;2.63;;;11.10;99.90;;;;;;5459912;22;20056;-81
2022/12/20 08:01:58;;;;;;;4.10;2.47;;;11.20;99.90;;;;;;5087433;27;38564;-83
2022/12/20 08:07:24;;;;;;;6.57;2.97;;;11.20;99.90;;;;;;6189625;22;20404;-77
2022/12/20 08:31:44;;;;;;;4.83;2.37;;;11.30;99.90;;;;;;5039206;23;20035;-82
2022/12/20 08:44:37;;;;;;;8.20;3.67;;;10.90;99.90;;;;;;5851184;23;20042;-81
2022/12/20 09:00:47;;;;;;;6.13;2.97;;;10.70;99.90;;;;;;5442114;23;20027;-80
2022/12/20 09:03:17;;;;;;;10.03;3.53;;;10.70;99.90;;;;;;5009056;28;39474;-82
2022/12/20 09:43:15;;;;;;;10.07;3.90;;;10.60;99.90;;;;;;6018783;23;20047;31
2022/12/20 10:10:38;;;;;;;9.93;4.05;;;10.60;99.90;;;;;;5682133;23;21279;31
2022/12/20 12:27:24;;;;;;;8.52;5.78;;;10.50;99.90;;;;;;6090463;23;4797217;-80
2022/12/20 15:08:10;;;;;;;14.70;11.33;;;10.30;99.90;;;;;;6010985;23;20022;-77
2022/12/20 15:13:29;;;;;;;12.40;11.10;;;10.30;99.90;;;;;;5789906;23;20058;-79
2022/12/20 15:15:58;;;;;;;13.23;11.30;;;10.30;99.90;;;;;;4989749;28;38087;-79
2022/12/20 16:19:28;;;;;;;27.40;21.43;;;10.10;99.90;;;;;;6091695;23;20026;31
2022/12/20 16:21:54;;;;;;;24.93;22.23;;;10.10;99.90;;;;;;4945306;28;36450;-78
2022/12/20 16:24:20;;;;;;;26.57;21.67;;;10.10;99.90;;;;;;4957500;28;37554;-78
2022/12/20 16:26:50;;;;;;;23.07;20.57;;;10.10;99.90;;;;;;4944074;28;37796;-78
2022/12/20 16:29:16;;;;;;;27.70;22.97;;;10.10;99.90;;;;;;4948951;28;38643;-77
2022/12/20 16:31:42;;;;;;;25.10;21.83;;;10.10;99.90;;;;;;4950564;28;35890;-78
2022/12/20 16:34:14;;;;;;;24.10;21.57;;;10.00;99.90;;;;;;4946371;28;36475;-76
2022/12/20 16:36:40;;;;;;;26.70;22.13;;;10.00;99.90;;;;;;4951017;28;40146;-78
2022/12/20 16:39:08;;;;;;;23.97;21.43;;;10.00;99.90;;;;;;4935835;28;39934;-77
2022/12/20 16:41:36;;;;;;;29.13;24.03;;;10.00;99.90;;;;;;4952839;28;38095;-78
2022/12/20 16:44:03;;;;;;;25.00;21.40;;;10.00;99.90;;;;;;4952517;28;37984;-78
2022/12/20 16:46:31;;;;;;;23.67;20.60;;;10.00;99.90;;;;;;4953061;28;49056;-81
2022/12/20 16:49:04;;;;;;;28.97;23.40;;;10.00;99.90;;;;;;4973128;28;38710;-80
2022/12/20 16:51:39;;;;;;;34.27;25.63;;;10.00;99.90;;;;;;4973266;28;47418;-80
2022/12/20 16:54:29;;;;;;;32.43;24.13;;;10.00;99.90;;;;;;4971254;28;37040;-80
2022/12/20 16:57:10;;;;;;;32.50;25.13;;;10.00;99.90;;;;;;4976751;28;38630;-83
2022/12/20 16:59:55;;;;;;;30.33;25.53;;;10.00;99.90;;;;;;4935327;28;38916;-80
2022/12/20 17:02:26;;;;;;;28.63;24.97;;;10.00;99.90;;;;;;5465679;23;38553;-80
2022/12/20 17:04:56;;;;;;;33.70;25.17;;;10.00;99.90;;;;;;4991081;28;37465;-79
2022/12/20 17:07:22;;;;;;;31.43;25.67;;;10.00;99.90;;;;;;5012365;28;39084;-79
2022/12/20 17:09:49;;;;;;;29.77;25.13;;;10.00;99.90;;;;;;4990791;28;37658;-80
2022/12/20 17:12:21;;;;;;;39.67;28.90;;;10.00;99.90;;;;;;4989634;28;37961;-79
2022/12/20 17:14:52;;;;;;;29.50;25.97;;;10.00;99.90;;;;;;5007752;28;37761;-81
2022/12/20 17:17:19;;;;;;;27.27;24.27;;;10.00;99.90;;;;;;5001742;28;39950;-79
2022/12/20 17:19:45;;;;;;;28.67;25.63;;;10.00;99.90;;;;;;4985206;28;37727;-80
2022/12/20 17:22:12;;;;;;;31.97;27.53;;;10.00;99.90;;;;;;4992593;28;37533;-78
2022/12/20 17:24:38;;;;;;;38.63;28.40;;;10.00;99.90;;;;;;4994660;28;37060;-79
2022/12/20 17:27:04;;;;;;;36.27;28.27;;;10.00;99.90;;;;;;4998237;28;39894;-78
2022/12/20 17:29:30;;;;;;;33.00;25.80;;;10.00;99.90;;;;;;4979050;28;37307;-79
2022/12/20 17:31:58;;;;;;;30.80;26.17;;;10.00;99.90;;;;;;4984292;28;38102;-79
2022/12/20 17:34:27;;;;;;;33.13;25.83;;;10.00;99.90;;;;;;4980088;28;37319;-79
2022/12/20 17:36:56;;;;;;;36.93;28.00;;;10.00;99.90;;;;;;4980569;28;38891;-78
2022/12/20 17:39:23;;;;;;;29.33;24.40;;;10.00;99.90;;;;;;4989985;28;39736;-78
2022/12/20 17:41:51;;;;;;;27.43;24.43;;;10.00;99.90;;;;;;4980190;28;37138;-79
2022/12/20 17:44:22;;;;;;;31.20;26.07;;;10.00;99.90;;;;;;4978744;28;36349;-79
2022/12/20 17:46:49;;;;;;;27.03;24.13;;;10.00;99.90;;;;;;4998323;28;38656;-81
2022/12/20 17:49:15;;;;;;;26.93;23.50;;;10.00;99.90;;;;;;5001801;28;39047;-78
2022/12/20 17:51:41;;;;;;;42.40;29.77;;;10.00;99.90;;;;;;4988405;28;36521;-79
2022/12/20 17:54:19;;;;;;;33.17;27.97;;;10.00;99.90;;;;;;5005850;28;40464;-80
2022/12/20 17:56:47;;;;;;;30.90;24.03;;;10.00;99.90;;;;;;4975843;28;40979;-79
2022/12/20 17:59:13;;;;;;;27.50;23.70;;;10.00;99.90;;;;;;4961301;28;38435;-78
2022/12/20 18:01:41;;;;;;;32.97;27.00;;;10.00;99.90;;;;;;4964215;28;36783;-79
2022/12/20 18:04:10;;;;;;;38.00;27.97;;;10.00;99.90;;;;;;4986157;28;38508;-79
2022/12/20 18:06:42;;;;;;;41.25;28.67;;;10.00;99.90;;;;;;5001476;28;39663;-78
2022/12/20 18:09:17;;;;;;;30.00;26.53;;;10.10;99.90;;;;;;4974243;28;38637;-79
2022/12/20 18:11:43;;;;;;;46.70;30.50;;;10.00;99.90;;;;;;4983372;28;38287;-80
2022/12/20 18:14:10;;;;;;;36.03;27.87;;;10.00;99.90;;;;;;4994521;28;37209;-80
2022/12/20 18:16:40;;;;;;;43.93;29.87;;;10.00;99.90;;;;;;4985073;28;39162;-80
2022/12/20 18:21:42;;;;;;;38.70;28.60;;;10.00;99.90;;;;;;5023545;23;20054;-80
2022/12/20 18:24:13;;;;;;;40.83;29.73;;;10.10;99.90;;;;;;4976722;28;38959;-80
2022/12/20 18:26:46;;;;;;;47.50;32.40;;;10.00;99.90;;;;;;5773305;23;37344;-80
2022/12/20 18:31:49;;;;;;;38.13;28.67;;;10.10;99.90;;;;;;5215764;23;20061;-81
2022/12/20 18:34:17;;;;;;;44.17;33.07;;;10.10;99.90;;;;;;5005264;28;38988;-80
2022/12/20 18:36:43;;;;;;;47.23;33.00;;;10.10;99.90;;;;;;4999131;28;39475;-81
2022/12/20 18:39:11;;;;;;;37.53;30.60;;;10.10;99.90;;;;;;4993727;28;38331;-79
2022/12/20 18:41:38;;;;;;;46.20;32.63;;;10.10;99.90;;;;;;5007463;28;38287;-82
2022/12/20 18:46:43;;;;;;;41.17;31.47;;;10.10;99.90;;;;;;4792328;26;20054;-79
2022/12/20 18:49:18;;;;;;;51.40;33.93;;;10.10;99.90;;;;;;4947781;28;38592;-77
2022/12/20 18:51:44;;;;;;;38.60;32.53;;;10.10;99.90;;;;;;4932693;28;37262;-76
2022/12/20 18:54:13;;;;;;;51.07;37.00;;;10.10;99.90;;;;;;4944737;28;37069;-75
2022/12/20 18:56:39;;;;;;;42.80;33.17;;;10.10;99.90;;;;;;4962855;28;37712;-75
2022/12/20 18:59:07;;;;;;;41.77;34.60;;;10.20;99.90;;;;;;4942600;28;38375;-76
2022/12/20 19:01:34;;;;;;;44.53;33.83;;;10.10;99.90;;;;;;4950486;28;38640;-77
2022/12/20 19:04:02;;;;;;;47.00;36.70;;;10.20;99.90;;;;;;4945250;28;38183;-76
2022/12/20 19:06:30;;;;;;;60.93;40.80;;;10.20;99.90;;;;;;4947550;28;46981;-76
2022/12/20 19:08:59;;;;;;;44.47;34.70;;;10.20;99.90;;;;;;4959333;28;38265;-76
2022/12/20 19:11:25;;;;;;;60.00;37.03;;;10.20;99.90;;;;;;4951707;28;38254;-76
2022/12/20 19:13:51;;;;;;;57.00;38.07;;;10.10;99.90;;;;;;4952236;28;37349;-76
2022/12/20 19:16:30;;;;;;;50.50;37.57;;;10.20;99.90;;;;;;4963442;28;38324;-76
2022/12/20 19:18:58;;;;;;;41.00;34.43;;;10.10;99.90;;;;;;4934661;28;35986;-76
2022/12/20 19:21:27;;;;;;;45.83;37.03;;;10.20;99.90;;;;;;4960947;28;36919;-76
2022/12/20 19:23:56;;;;;;;41.30;34.90;;;10.20;99.90;;;;;;4956825;28;37208;-75
2022/12/20 19:26:26;;;;;;;52.97;37.03;;;10.10;99.90;;;;;;4958395;28;39321;-76
2022/12/20 19:28:53;;;;;;;81.67;44.40;;;10.10;99.90;;;;;;4957919;28;39284;-76
2022/12/20 19:31:24;;;;;;;46.20;36.17;;;10.10;99.90;;;;;;4970417;28;38413;-76
2022/12/20 19:33:55;;;;;;;46.53;37.60;;;10.20;99.90;;;;;;4975195;28;36654;-75
2022/12/20 19:36:24;;;;;;;58.00;41.90;;;10.10;99.90;;;;;;4960278;28;38484;-76
2022/12/20 19:38:54;;;;;;;68.27;42.20;;;10.10;99.90;;;;;;4956805;28;38982;-76
2022/12/20 19:41:21;;;;;;;56.40;38.93;;;10.10;99.90;;;;;;4962622;28;38960;-76
2022/12/20 19:43:48;;;;;;;50.23;37.90;;;10.10;99.90;;;;;;4966409;28;37220;-76
2022/12/20 19:46:15;;;;;;;53.63;38.47;;;10.10;99.90;;;;;;4964758;28;37598;-76
2022/12/20 19:48:41;;;;;;;47.87;37.10;;;10.10;99.90;;;;;;4965033;28;38336;-76
2022/12/20 19:51:10;;;;;;;50.37;36.90;;;10.10;99.90;;;;;;4962730;28;38444;-77
2022/12/20 19:53:42;;;;;;;60.07;41.33;;;10.00;99.90;;;;;;4968834;28;38343;-76
2022/12/20 19:56:09;;;;;;;49.27;38.40;;;10.00;99.90;;;;;;4967418;28;37943;-77
2022/12/20 19:58:36;;;;;;;56.70;40.00;;;10.00;99.90;;;;;;4971359;28;36895;-76
2022/12/20 20:01:04;;;;;;;60.43;39.97;;;10.00;99.90;;;;;;4969880;28;37374;-77
2022/12/20 20:03:31;;;;;;;77.10;41.23;;;10.00;99.90;;;;;;4961296;28;36620;-77
2022/12/20 20:05:57;;;;;;;66.30;43.10;;;10.00;99.90;;;;;;4958769;28;37786;-76
2022/12/20 20:08:23;;;;;;;55.47;40.17;;;9.90;99.90;;;;;;4957972;28;39526;-75
2022/12/20 20:10:54;;;;;;;62.60;39.93;;;10.00;99.90;;;;;;4944683;28;37935;-74
2022/12/20 20:13:22;;;;;;;55.40;38.97;;;9.90;99.90;;;;;;4967164;28;36423;-75
2022/12/20 20:15:50;;;;;;;64.37;40.23;;;9.90;99.90;;;;;;4969510;28;38408;-75
2022/12/20 20:18:16;;;;;;;73.13;44.00;;;9.90;99.90;;;;;;4957477;28;38888;-76
2022/12/20 20:20:43;;;;;;;77.13;43.60;;;9.90;99.90;;;;;;4961994;28;38228;-75
2022/12/20 20:23:09;;;;;;;68.60;41.40;;;9.90;99.90;;;;;;4953160;28;37748;-76
2022/12/20 20:25:35;;;;;;;62.60;39.50;;;9.90;99.90;;;;;;4962065;28;37561;-77
2022/12/20 20:28:02;;;;;;;55.83;37.87;;;9.80;99.90;;;;;;4972462;28;38073;-76
2022/12/20 20:30:28;;;;;;;54.90;38.70;;;9.80;99.90;;;;;;4959536;28;48910;-76
2022/12/20 20:32:54;;;;;;;72.67;43.40;;;9.80;99.90;;;;;;4960726;28;37578;-77
2022/12/20 20:35:20;;;;;;;64.27;38.97;;;9.80;99.90;;;;;;4961383;28;37693;-77
2022/12/20 20:37:47;;;;;;;101.33;45.90;;;9.70;99.90;;;;;;4961869;28;38189;-76
2022/12/20 20:40:14;;;;;;;57.67;39.37;;;9.70;99.90;;;;;;4958499;28;37012;-76
2022/12/20 20:42:40;;;;;;;52.87;36.70;;;9.70;99.90;;;;;;4965684;28;36936;-76
2022/12/20 20:45:07;;;;;;;94.70;44.07;;;9.70;99.90;;;;;;4949250;28;39824;-77
2022/12/20 20:47:33;;;;;;;56.97;36.70;;;9.70;99.90;;;;;;4940692;28;38710;-76
2022/12/20 20:49:59;;;;;;;63.53;36.17;;;9.70;99.90;;;;;;4948958;28;36704;-77
2022/12/20 20:52:25;;;;;;;58.13;36.00;;;9.70;99.90;;;;;;4947212;28;38087;-76
2022/12/20 20:54:51;;;;;;;62.60;37.23;;;9.60;99.90;;;;;;4945183;28;38257;-76
2022/12/20 20:57:18;;;;;;;55.13;34.67;;;9.70;99.90;;;;;;4938803;28;38284;-77
2022/12/20 20:59:44;;;;;;;54.30;34.30;;;9.60;99.90;;;;;;4941670;28;38027;-77
2022/12/20 21:02:13;;;;;;;51.40;33.37;;;9.60;99.90;;;;;;4965135;28;37150;-77
2022/12/20 21:04:39;;;;;;;57.93;34.10;;;9.60;99.90;;;;;;4939573;28;37944;-75
2022/12/20 21:07:05;;;;;;;52.33;30.13;;;9.50;99.90;;;;;;4960327;28;39504;-77
2022/12/20 21:09:31;;;;;;;66.83;35.27;;;9.50;99.90;;;;;;4949736;28;38196;-77
2022/12/20 21:11:57;;;;;;;57.27;33.90;;;9.50;99.90;;;;;;4932208;28;36362;-77
2022/12/20 21:14:24;;;;;;;61.30;32.27;;;9.50;99.90;;;;;;4954856;28;38250;-77
2022/12/20 21:16:50;;;;;;;47.97;29.10;;;9.50;99.90;;;;;;4954428;28;37272;-76
2022/12/20 21:19:16;;;;;;;52.63;31.47;;;9.50;99.90;;;;;;4961973;28;37786;-76
2022/12/20 21:21:42;;;;;;;51.73;31.50;;;9.50;99.90;;;;;;4944334;28;36548;-75
2022/12/20 21:24:08;;;;;;;52.70;31.43;;;9.40;99.90;;;;;;4951050;28;38368;-75
2022/12/20 21:26:35;;;;;;;47.67;30.17;;;9.40;99.90;;;;;;4950199;28;38121;-75
2022/12/20 21:29:01;;;;;;;41.00;27.77;;;9.40;99.90;;;;;;4955428;28;38376;-76
2022/12/20 21:31:27;;;;;;;40.53;25.97;;;9.30;99.90;;;;;;4955785;28;37211;-76